Time,TemperatureF,DewpointF,PressureIn,WindDirection,WindDirectionDegrees,WindSpeedMPH,WindSpeedGustMPH,Humidity,HourlyPrecipIn,Conditions,Clouds,dailyrainin,SoftwareType,DateUTC
2013-01-11 00:03:00,67.5,63.3,30.21,South,180,0.0,2.9,87,0.00,,,0.00,WSDL version 420,2013-01-11 05:03:00,
2013-01-11 00:08:00,67.9,63.8,30.21,SE,128,0.0,0.0,87,0.00,,,0.00,WSDL version 420,2013-01-11 05:08:00,
2013-01-11 00:13:00,68.5,64.6,30.21,ESE,122,0.2,2.7,88,0.00,,,0.00,WSDL version 420,2013-01-11 05:13:00,
2013-01-11 00:18:00,69.6,66.3,30.21,NE,45,1.2,4.9,89,0.00,,,0.00,WSDL version 420,2013-01-11 05:18:00,
2013-01-11 00:23:00,70.1,66.6,30.21,NE,51,2.3,4.9,89,0.00,,,0.00,WSDL version 420,2013-01-11 05:23:00,
2013-01-11 00:28:00,70.6,67.1,30.21,SE,141,2.2,3.6,88,0.00,,,0.00,WSDL version 420,2013-01-11 05:28:00,
2013-01-11 00:33:00,70.7,66.7,30.21,East,84,1.6,3.6,87,0.00,,,0.00,WSDL version 420,2013-01-11 05:33:00,
2013-01-11 00:38:00,70.8,66.5,30.21,East,90,2.2,2.9,86,0.00,,,0.00,WSDL version 420,2013-01-11 05:38:00,
2013-01-11 00:43:00,70.9,66.2,30.21,East,83,0.9,2.9,84,0.00,,,0.00,WSDL version 420,2013-01-11 05:43:00,
2013-01-11 06:36:00,70.3,66.9,30.15,NNE,23,0.0,0.0,89,0.00,,,0.00,WSDL version 420,2013-01-11 11:36:00,
2013-01-11 06:41:00,70.3,66.9,30.15,North,360,0.0,0.0,89,0.00,,,0.00,WSDL version 420,2013-01-11 11:41:00,
2013-01-11 06:46:00,70.3,66.9,30.15,ESE,104,0.0,0.0,89,0.00,,,0.00,WSDL version 420,2013-01-11 11:46:00,
2013-01-11 06:51:00,70.2,66.7,30.15,SSE,158,0.0,0.0,89,0.00,,,0.00,WSDL version 420,2013-01-11 11:51:00,
2013-01-11 06:56:00,70.2,67.0,30.15,SSE,158,0.0,0.0,90,0.00,,,0.00,WSDL version 420,2013-01-11 11:56:00,
2013-01-11 07:01:00,70.2,67.1,30.15,SSE,158,0.0,0.0,90,0.00,,,0.00,WSDL version 420,2013-01-11 12:01:00,
2013-01-11 07:11:00,70.2,67.1,30.15,SSE,158,0.0,0.0,90,0.00,,,0.00,WSDL version 420,2013-01-11 12:11:00,
2013-01-11 07:16:00,70.2,67.1,30.15,SSE,158,0.0,0.0,90,0.00,,,0.00,WSDL version 420,2013-01-11 12:16:00,
2013-01-11 07:21:00,70.1,67.0,30.18,SSE,158,0.0,0.0,90,0.00,,,0.00,WSDL version 420,2013-01-11 12:21:00,
2013-01-11 07:26:00,70.0,66.9,30.18,SSE,158,0.0,0.0,90,0.00,,,0.00,WSDL version 420,2013-01-11 12:26:00,
2013-01-11 07:31:00,70.1,67.3,30.18,SSE,158,0.0,0.0,91,0.00,,,0.00,WSDL version 420,2013-01-11 12:31:00,
2013-01-11 07:36:00,70.2,67.4,30.18,SSE,158,0.0,0.0,91,0.00,,,0.00,WSDL version 420,2013-01-11 12:36:00,
2013-01-11 07:41:00,70.2,67.5,30.18,SSE,158,0.0,0.0,91,0.00,,,0.00,WSDL version 420,2013-01-11 12:41:00,
2013-01-11 07:46:00,70.5,67.7,30.18,SSE,158,0.0,0.0,91,0.00,,,0.00,WSDL version 420,2013-01-11 12:46:00,
2013-01-11 07:51:00,70.7,68.2,30.18,SSE,158,0.0,0.0,92,0.00,,,0.00,WSDL version 420,2013-01-11 12:51:00,
2013-01-11 07:56:00,70.9,68.4,30.18,SSE,158,0.0,0.0,91,0.00,,,0.00,WSDL version 420,2013-01-11 12:56:00,
2013-01-11 08:01:00,71.0,68.3,30.18,SSE,158,0.0,0.0,91,0.00,,,0.00,WSDL version 420,2013-01-11 13:01:00,
2013-01-11 08:06:00,71.1,68.3,30.18,SSE,158,0.0,0.0,91,0.00,,,0.00,WSDL version 420,2013-01-11 13:06:00,
2013-01-11 08:11:00,71.1,68.4,30.18,SSE,158,0.0,0.0,91,0.00,,,0.00,WSDL version 420,2013-01-11 13:11:00,
2013-01-11 08:16:00,71.3,68.6,30.18,NE,54,0.0,0.0,91,0.00,,,0.00,WSDL version 420,2013-01-11 13:16:00,
2013-01-11 08:21:00,71.5,68.8,30.18,SSE,158,0.0,0.0,91,0.00,,,0.00,WSDL version 420,2013-01-11 13:21:00,
2013-01-11 08:26:00,71.8,68.9,30.18,South,180,0.0,0.0,90,0.00,,,0.00,WSDL version 420,2013-01-11 13:26:00,
2013-01-11 08:31:00,72.1,69.0,30.18,SE,129,0.0,0.0,90,0.00,,,0.00,WSDL version 420,2013-01-11 13:31:00,
2013-01-11 08:36:00,72.3,69.2,30.18,NNE,23,0.0,0.0,90,0.00,,,0.00,WSDL version 420,2013-01-11 13:36:00,
2013-01-11 08:41:00,72.5,69.4,30.18,NNE,23,0.0,0.0,90,0.00,,,0.00,WSDL version 420,2013-01-11 13:41:00,
2013-01-11 08:46:00,72.8,69.7,30.18,NNE,23,0.0,0.0,90,0.00,,,0.00,WSDL version 420,2013-01-11 13:46:00,
2013-01-11 08:51:00,73.1,69.8,30.15,NE,41,0.0,0.0,89,0.00,,,0.00,WSDL version 420,2013-01-11 13:51:00,
2013-01-11 08:56:00,73.6,69.8,30.15,NE,45,0.0,0.0,88,0.00,,,0.00,WSDL version 420,2013-01-11 13:56:00,
2013-01-11 09:01:00,74.3,70.4,30.15,NNE,14,0.0,0.0,87,0.00,,,0.00,WSDL version 420,2013-01-11 14:01:00,
2013-01-11 09:06:00,74.5,70.1,30.18,East,98,0.0,0.0,86,0.00,,,0.00,WSDL version 420,2013-01-11 14:06:00,
2013-01-11 09:11:00,74.8,69.4,30.18,SE,135,0.0,1.3,82,0.00,,,0.00,WSDL version 420,2013-01-11 14:11:00,
2013-01-11 09:16:00,75.0,69.0,30.18,SE,143,0.8,2.5,81,0.00,,,0.00,WSDL version 420,2013-01-11 14:16:00,
2013-01-11 09:21:00,75.2,68.8,30.18,South,169,0.0,2.5,80,0.00,,,0.00,WSDL version 420,2013-01-11 14:21:00,
2013-01-11 09:26:00,75.6,69.0,30.18,NW,315,0.0,1.6,80,0.00,,,0.00,WSDL version 420,2013-01-11 14:26:00,
2013-01-11 09:31:00,75.8,68.9,30.18,North,360,0.0,1.6,79,0.00,,,0.00,WSDL version 420,2013-01-11 14:31:00,
2013-01-11 09:36:00,75.8,68.7,30.18,North,360,0.0,0.0,78,0.00,,,0.00,WSDL version 420,2013-01-11 14:36:00,
2013-01-11 09:41:00,75.7,68.4,30.18,North,360,0.0,0.0,78,0.00,,,0.00,WSDL version 420,2013-01-11 14:41:00,
2013-01-11 09:46:00,75.7,68.3,30.18,NNE,23,0.0,0.0,78,0.00,,,0.00,WSDL version 420,2013-01-11 14:46:00,
2013-01-11 09:51:00,75.4,68.0,30.21,NW,326,0.0,2.9,78,0.00,,,0.00,WSDL version 420,2013-01-11 14:51:00,
2013-01-11 09:56:00,75.1,67.7,30.21,NNE,30,0.0,2.9,78,0.00,,,0.00,WSDL version 420,2013-01-11 14:56:00,
2013-01-11 10:01:00,75.0,67.7,30.21,NW,308,0.0,2.0,78,0.00,,,0.00,WSDL version 420,2013-01-11 15:01:00,
2013-01-11 10:06:00,74.8,67.4,30.18,SSW,209,1.0,2.5,78,0.00,,,0.00,WSDL version 420,2013-01-11 15:06:00,
2013-01-11 10:11:00,74.5,67.5,30.18,ESE,113,0.4,3.1,79,0.00,,,0.00,WSDL version 420,2013-01-11 15:11:00,
2013-01-11 10:16:00,74.2,67.3,30.18,SSE,153,0.3,3.1,79,0.04,,,0.04,WSDL version 420,2013-01-11 15:16:00,
2013-01-11 10:21:00,73.9,67.3,30.18,NW,315,0.0,2.9,80,0.04,,,0.04,WSDL version 420,2013-01-11 15:21:00,
2013-01-11 10:26:00,73.9,68.1,30.18,South,180,0.0,1.1,82,0.04,,,0.04,WSDL version 420,2013-01-11 15:26:00,
2013-01-11 10:31:00,73.9,68.1,30.18,South,183,0.0,2.2,82,0.04,,,0.04,WSDL version 420,2013-01-11 15:31:00,
2013-01-11 10:36:00,73.7,68.3,30.18,South,188,0.6,2.2,83,0.09,,,0.09,WSDL version 420,2013-01-11 15:36:00,
2013-01-11 10:41:00,73.4,68.1,30.18,SW,219,0.9,3.1,83,0.09,,,0.09,WSDL version 420,2013-01-11 15:41:00,
2013-01-11 10:46:00,73.2,68.3,30.18,NE,41,1.1,3.1,84,0.13,,,0.13,WSDL version 420,2013-01-11 15:46:00,
2013-01-11 10:51:00,73.2,68.3,30.18,WSW,240,0.0,2.7,86,0.13,,,0.13,WSDL version 420,2013-01-11 15:51:00,
2013-01-11 10:56:00,73.0,68.5,30.18,NNE,16,0.0,1.6,86,0.13,,,0.13,WSDL version 420,2013-01-11 15:56:00,
2013-01-11 11:01:00,73.3,68.9,30.18,South,180,0.0,2.0,87,0.17,,,0.17,WSDL version 420,2013-01-11 16:01:00,
2013-01-11 11:06:00,74.0,70.0,30.18,East,87,0.0,2.0,88,0.17,,,0.17,WSDL version 420,2013-01-11 16:06:00,
2013-01-11 11:11:00,74.7,70.9,30.18,South,176,0.1,1.6,88,0.17,,,0.17,WSDL version 420,2013-01-11 16:11:00,
2013-01-11 11:16:00,74.8,70.7,30.18,SSW,210,0.2,2.5,87,0.13,,,0.17,WSDL version 420,2013-01-11 16:16:00,
2013-01-11 11:21:00,75.0,69.7,30.18,ENE,75,4.2,8.7,81,0.13,,,0.17,WSDL version 420,2013-01-11 16:21:00,
2013-01-11 11:26:00,75.2,68.2,30.18,ENE,73,5.7,8.7,77,0.13,,,0.17,WSDL version 420,2013-01-11 16:26:00,
2013-01-11 11:31:00,75.5,68.2,30.18,ENE,68,3.7,8.7,78,0.13,,,0.17,WSDL version 420,2013-01-11 16:31:00,
2013-01-11 11:36:00,75.5,67.6,30.18,ESE,119,3.9,9.6,75,0.08,,,0.17,WSDL version 420,2013-01-11 16:36:00,
2013-01-11 11:41:00,75.2,66.3,30.18,ENE,74,3.4,9.6,74,0.08,,,0.17,WSDL version 420,2013-01-11 16:41:00,
2013-01-11 11:46:00,75.2,66.6,30.18,ESE,108,3.0,7.4,75,0.04,,,0.17,WSDL version 420,2013-01-11 16:46:00,
2013-01-11 11:51:00,75.2,66.2,30.15,ENE,58,4.5,6.7,73,0.04,,,0.17,WSDL version 420,2013-01-11 16:51:00,
2013-01-11 11:56:00,75.1,65.9,30.15,NE,54,4.3,6.7,73,0.04,,,0.17,WSDL version 420,2013-01-11 16:56:00,
2013-01-11 12:01:00,74.8,65.9,30.15,NE,56,2.6,6.5,74,0.00,,,0.17,WSDL version 420,2013-01-11 17:01:00,
2013-01-11 12:06:00,74.6,65.9,30.18,East,90,0.7,4.7,75,0.00,,,0.17,WSDL version 420,2013-01-11 17:06:00,
2013-01-11 12:11:00,74.4,66.2,30.18,ENE,68,1.7,4.9,76,0.00,,,0.17,WSDL version 420,2013-01-11 17:11:00,
2013-01-11 12:16:00,74.3,66.0,30.18,ENE,68,2.6,4.9,75,0.00,,,0.17,WSDL version 420,2013-01-11 17:16:00,
2013-01-11 12:21:00,74.3,65.9,30.18,East,90,2.7,4.3,75,0.00,,,0.17,WSDL version 420,2013-01-11 17:21:00,
2013-01-11 12:26:00,74.3,65.9,30.18,East,79,2.6,4.0,75,0.00,,,0.17,WSDL version 420,2013-01-11 17:26:00,
2013-01-11 12:31:00,74.3,65.6,30.18,ENE,74,1.6,5.8,75,0.00,,,0.17,WSDL version 420,2013-01-11 17:31:00,
2013-01-11 12:36:00,74.3,65.6,30.21,ENE,64,3.6,7.2,74,0.00,,,0.17,WSDL version 420,2013-01-11 17:36:00,
2013-01-11 12:41:00,74.5,65.2,30.21,ENE,68,4.6,8.7,72,0.00,,,0.17,WSDL version 420,2013-01-11 17:41:00,
2013-01-11 12:46:00,74.8,64.9,30.21,ENE,58,6.1,9.4,71,0.00,,,0.17,WSDL version 420,2013-01-11 17:46:00,
2013-01-11 12:51:00,75.4,65.0,30.18,East,84,4.6,9.4,71,0.00,,,0.17,WSDL version 420,2013-01-11 17:51:00,
2013-01-11 12:56:00,76.4,66.0,30.18,ENE,62,5.0,6.7,69,0.00,,,0.17,WSDL version 420,2013-01-11 17:56:00,
2013-01-11 13:01:00,76.8,65.3,30.18,ENE,68,4.5,10.1,67,0.00,,,0.17,WSDL version 420,2013-01-11 18:01:00,
2013-01-11 13:06:00,77.0,64.8,30.15,ENE,62,6.2,10.1,66,0.00,,,0.17,WSDL version 420,2013-01-11 18:06:00,
2013-01-11 13:11:00,77.5,65.2,30.15,North,354,4.3,8.9,66,0.00,,,0.17,WSDL version 420,2013-01-11 18:11:00,
2013-01-11 13:16:00,77.7,64.9,30.15,SE,146,3.7,7.4,65,0.00,,,0.17,WSDL version 420,2013-01-11 18:16:00,
2013-01-11 13:21:00,77.7,64.4,30.12,ENE,75,4.8,8.7,63,0.00,,,0.17,WSDL version 420,2013-01-11 18:21:00,
2013-01-11 13:26:00,77.9,64.1,30.12,ENE,68,5.1,8.7,62,0.00,,,0.17,WSDL version 420,2013-01-11 18:26:00,
2013-01-11 13:31:00,77.7,63.7,30.12,ENE,64,6.2,8.7,62,0.00,,,0.17,WSDL version 420,2013-01-11 18:31:00,
2013-01-11 13:36:00,78.1,64.6,30.12,ENE,73,3.8,8.7,63,0.00,,,0.17,WSDL version 420,2013-01-11 18:36:00,
2013-01-11 13:41:00,78.4,64.8,30.12,ESE,113,4.2,7.8,63,0.00,,,0.17,WSDL version 420,2013-01-11 18:41:00,
2013-01-11 13:46:00,77.9,64.1,30.12,East,80,6.2,12.1,62,0.00,,,0.17,WSDL version 420,2013-01-11 18:46:00,
2013-01-11 13:51:00,77.7,63.8,30.12,East,79,4.9,12.1,62,0.00,,,0.17,WSDL version 420,2013-01-11 18:51:00,
2013-01-11 13:56:00,78.1,64.1,30.12,ENE,68,4.8,7.2,62,0.00,,,0.17,WSDL version 420,2013-01-11 18:56:00,
2013-01-11 14:01:00,78.6,64.8,30.12,NE,34,3.2,6.5,63,0.00,,,0.17,WSDL version 420,2013-01-11 19:01:00,
2013-01-11 14:06:00,79.2,65.3,30.12,SSE,150,3.0,6.5,62,0.00,,,0.17,WSDL version 420,2013-01-11 19:06:00,
2013-01-11 14:11:00,79.1,64.0,30.12,SE,131,4.0,7.8,59,0.00,,,0.17,WSDL version 420,2013-01-11 19:11:00,
2013-01-11 14:16:00,79.0,63.8,30.12,NE,56,5.1,7.8,59,0.00,,,0.17,WSDL version 420,2013-01-11 19:16:00,
2013-01-11 14:21:00,79.1,64.1,30.12,ENE,68,4.1,7.8,60,0.00,,,0.17,WSDL version 420,2013-01-11 19:21:00,
2013-01-11 14:26:00,79.2,64.2,30.12,East,79,4.3,7.2,60,0.00,,,0.17,WSDL version 420,2013-01-11 19:26:00,
2013-01-11 14:31:00,79.7,64.6,30.12,East,86,4.3,7.2,59,0.00,,,0.17,WSDL version 420,2013-01-11 19:31:00,
2013-01-11 14:36:00,80.3,64.5,30.12,NNE,13,3.9,9.4,59,0.00,,,0.17,WSDL version 420,2013-01-11 19:36:00,
2013-01-11 14:41:00,80.4,63.9,30.12,SW,233,4.4,9.8,56,0.00,,,0.17,WSDL version 420,2013-01-11 19:41:00,
2013-01-11 14:46:00,79.9,63.3,30.12,East,83,3.0,9.8,57,0.00,,,0.17,WSDL version 420,2013-01-11 19:46:00,
2013-01-11 14:51:00,79.6,63.7,30.12,East,90,2.8,8.1,59,0.00,,,0.17,WSDL version 420,2013-01-11 19:51:00,
2013-01-11 14:56:00,79.3,62.7,30.12,East,86,4.3,8.5,57,0.00,,,0.17,WSDL version 420,2013-01-11 19:56:00,
2013-01-11 15:01:00,79.2,62.9,30.12,SSW,211,3.1,8.5,58,0.00,,,0.17,WSDL version 420,2013-01-11 20:01:00,
2013-01-11 15:06:00,79.0,62.4,30.12,ENE,72,5.8,10.3,57,0.00,,,0.17,WSDL version 420,2013-01-11 20:06:00,
2013-01-11 15:11:00,79.0,62.6,30.12,ENE,58,3.3,10.3,57,0.00,,,0.17,WSDL version 420,2013-01-11 20:11:00,
2013-01-11 15:16:00,78.9,62.6,30.12,NE,34,3.4,6.5,57,0.00,,,0.17,WSDL version 420,2013-01-11 20:16:00,
2013-01-11 15:21:00,78.6,62.5,30.09,ENE,60,3.5,6.5,58,0.00,,,0.17,WSDL version 420,2013-01-11 20:21:00,
2013-01-11 15:26:00,78.6,62.0,30.09,ENE,60,5.6,7.8,56,0.00,,,0.17,WSDL version 420,2013-01-11 20:26:00,
2013-01-11 15:31:00,78.6,62.5,30.09,South,180,2.8,8.9,58,0.00,,,0.17,WSDL version 420,2013-01-11 20:31:00,
2013-01-11 15:36:00,78.8,62.7,30.12,ENE,68,3.4,8.9,58,0.00,,,0.17,WSDL version 420,2013-01-11 20:36:00,
2013-01-11 15:41:00,78.9,62.9,30.12,SSW,212,3.5,7.8,58,0.00,,,0.17,WSDL version 420,2013-01-11 20:41:00,
2013-01-11 15:46:00,78.9,62.9,30.12,NNE,29,2.7,7.8,58,0.00,,,0.17,WSDL version 420,2013-01-11 20:46:00,
2013-01-11 15:51:00,78.7,62.8,30.12,SE,138,3.0,7.8,59,0.00,,,0.17,WSDL version 420,2013-01-11 20:51:00,
2013-01-11 15:56:00,78.3,62.4,30.12,ENE,68,4.1,7.2,58,0.00,,,0.17,WSDL version 420,2013-01-11 20:56:00,
2013-01-11 16:01:00,77.9,61.8,30.12,NE,56,5.3,6.3,58,0.00,,,0.17,WSDL version 420,2013-01-11 21:01:00,
2013-01-11 16:06:00,77.7,62.0,30.12,ENE,61,4.0,8.7,58,0.00,,,0.17,WSDL version 420,2013-01-11 21:06:00,
2013-01-11 16:11:00,77.5,62.1,30.12,ENE,58,3.1,8.7,59,0.00,,,0.17,WSDL version 420,2013-01-11 21:11:00,
2013-01-11 16:16:00,77.7,62.6,30.12,ESE,103,3.1,6.3,59,0.00,,,0.17,WSDL version 420,2013-01-11 21:16:00,
2013-01-11 16:21:00,77.7,62.2,30.12,East,84,2.8,6.0,59,0.00,,,0.17,WSDL version 420,2013-01-11 21:21:00,
2013-01-11 16:26:00,77.5,62.0,30.12,ESE,106,2.7,5.4,59,0.00,,,0.17,WSDL version 420,2013-01-11 21:26:00,
2013-01-11 16:31:00,77.0,61.6,30.12,East,87,2.7,5.8,59,0.00,,,0.17,WSDL version 420,2013-01-11 21:31:00,
2013-01-11 16:36:00,76.6,61.7,30.12,SSE,161,1.8,6.0,60,0.00,,,0.17,WSDL version 420,2013-01-11 21:36:00,
2013-01-11 16:41:00,76.3,61.9,30.12,North,10,3.7,6.5,61,0.00,,,0.17,WSDL version 420,2013-01-11 21:41:00,
2013-01-11 16:46:00,76.2,61.8,30.12,ENE,73,3.6,6.5,61,0.00,,,0.17,WSDL version 420,2013-01-11 21:46:00,
2013-01-11 16:51:00,76.0,61.6,30.12,ENE,68,4.1,6.5,61,0.00,,,0.17,WSDL version 420,2013-01-11 21:51:00,
2013-01-11 16:56:00,75.8,61.7,30.12,ENE,75,3.6,6.5,61,0.00,,,0.17,WSDL version 420,2013-01-11 21:56:00,
2013-01-11 17:01:00,75.7,61.6,30.12,NE,56,2.9,4.9,62,0.00,,,0.17,WSDL version 420,2013-01-11 22:01:00,
2013-01-11 17:06:00,75.5,61.8,30.12,SE,128,0.7,4.3,63,0.00,,,0.17,WSDL version 420,2013-01-11 22:06:00,
2013-01-11 17:11:00,75.2,61.8,30.12,East,98,2.9,5.4,63,0.00,,,0.17,WSDL version 420,2013-01-11 22:11:00,
2013-01-11 17:16:00,74.9,61.6,30.12,SE,138,2.0,5.4,64,0.00,,,0.17,WSDL version 420,2013-01-11 22:16:00,
2013-01-11 17:21:00,74.6,61.6,30.12,ENE,61,2.7,5.4,64,0.00,,,0.17,WSDL version 420,2013-01-11 22:21:00,
2013-01-11 17:26:00,74.5,61.6,30.12,South,174,2.1,5.4,65,0.00,,,0.17,WSDL version 420,2013-01-11 22:26:00,
2013-01-11 17:31:00,74.3,61.7,30.12,ESE,106,2.2,5.4,65,0.00,,,0.17,WSDL version 420,2013-01-11 22:31:00,
2013-01-11 17:36:00,74.1,61.8,30.09,East,79,1.8,4.9,65,0.00,,,0.17,WSDL version 420,2013-01-11 22:36:00,
2013-01-11 17:41:00,73.9,61.8,30.09,SE,135,2.2,4.9,66,0.00,,,0.17,WSDL version 420,2013-01-11 22:41:00,
2013-01-11 17:46:00,73.7,61.6,30.09,NE,54,1.4,4.3,66,0.00,,,0.17,WSDL version 420,2013-01-11 22:46:00,
2013-01-11 17:51:00,73.5,61.7,30.12,SE,141,0.4,2.2,67,0.00,,,0.17,WSDL version 420,2013-01-11 22:51:00,
2013-01-11 17:56:00,73.2,61.6,30.12,SE,126,0.0,2.7,67,0.00,,,0.17,WSDL version 420,2013-01-11 22:56:00,
2013-01-11 18:01:00,73.0,61.8,30.12,NNE,15,0.3,3.8,68,0.00,,,0.17,WSDL version 420,2013-01-11 23:01:00,
2013-01-11 18:06:00,72.8,61.6,30.12,East,84,0.0,3.8,68,0.00,,,0.17,WSDL version 420,2013-01-11 23:06:00,
2013-01-11 18:11:00,72.6,61.4,30.12,ESE,107,0.4,2.0,68,0.00,,,0.17,WSDL version 420,2013-01-11 23:11:00,
2013-01-11 18:16:00,72.4,61.7,30.12,ENE,77,0.4,2.2,69,0.00,,,0.17,WSDL version 420,2013-01-11 23:16:00,
2013-01-11 18:21:00,72.3,61.5,30.12,ENE,76,1.0,2.2,69,0.00,,,0.17,WSDL version 420,2013-01-11 23:21:00,
2013-01-11 18:26:00,72.1,61.4,30.12,ENE,61,0.4,2.0,69,0.00,,,0.17,WSDL version 420,2013-01-11 23:26:00,
2013-01-11 18:31:00,72.0,61.5,30.12,ENE,68,0.0,1.6,70,0.00,,,0.17,WSDL version 420,2013-01-11 23:31:00,
2013-01-11 18:36:00,71.8,61.5,30.12,East,90,0.0,0.9,70,0.00,,,0.17,WSDL version 420,2013-01-11 23:36:00,
2013-01-11 18:41:00,71.6,61.3,30.12,ENE,68,0.0,0.9,70,0.00,,,0.17,WSDL version 420,2013-01-11 23:41:00,
2013-01-11 18:46:00,71.6,61.4,30.12,NE,45,0.0,0.0,71,0.00,,,0.17,WSDL version 420,2013-01-11 23:46:00,
2013-01-11 18:51:00,71.2,61.4,30.09,NE,45,0.0,0.0,71,0.00,,,0.17,WSDL version 420,2013-01-11 23:51:00,
2013-01-11 18:56:00,71.1,61.5,30.09,NE,45,0.0,0.0,72,0.00,,,0.17,WSDL version 420,2013-01-11 23:56:00,
2013-01-11 19:01:00,70.8,61.4,30.09,NE,45,0.0,0.0,72,0.00,,,0.17,WSDL version 420,2013-01-12 00:01:00,
2013-01-11 19:06:00,70.7,61.3,30.12,NE,45,0.0,0.0,73,0.00,,,0.17,WSDL version 420,2013-01-12 00:06:00,
2013-01-11 19:11:00,70.5,61.5,30.12,NE,45,0.0,0.0,74,0.00,,,0.17,WSDL version 420,2013-01-12 00:11:00,
2013-01-11 19:16:00,70.2,61.6,30.12,NE,45,0.0,0.0,75,0.00,,,0.17,WSDL version 420,2013-01-12 00:16:00,
2013-01-11 19:21:00,70.0,61.7,30.12,NE,45,0.0,0.0,75,0.00,,,0.17,WSDL version 420,2013-01-12 00:21:00,
2013-01-11 19:26:00,69.8,61.6,30.12,NE,45,0.0,0.0,75,0.00,,,0.17,WSDL version 420,2013-01-12 00:26:00,
2013-01-11 19:31:00,69.7,62.0,30.12,NE,45,0.0,0.0,77,0.00,,,0.17,WSDL version 420,2013-01-12 00:31:00,
2013-01-11 19:36:00,69.5,62.2,30.12,NE,45,0.0,0.0,78,0.00,,,0.17,WSDL version 420,2013-01-12 00:36:00,
2013-01-11 19:41:00,69.4,62.2,30.12,NE,45,0.0,0.0,78,0.00,,,0.17,WSDL version 420,2013-01-12 00:41:00,
2013-01-11 19:46:00,69.3,62.1,30.12,NE,34,0.0,0.0,78,0.00,,,0.17,WSDL version 420,2013-01-12 00:46:00,
2013-01-11 19:51:00,69.0,61.9,30.12,North,360,0.0,0.0,78,0.00,,,0.17,WSDL version 420,2013-01-12 00:51:00,
2013-01-11 19:56:00,68.9,62.1,30.12,North,360,0.0,0.0,79,0.00,,,0.17,WSDL version 420,2013-01-12 00:56:00,
2013-01-11 20:01:00,68.8,62.0,30.12,North,360,0.0,0.0,79,0.00,,,0.17,WSDL version 420,2013-01-12 01:01:00,
2013-01-11 20:06:00,68.7,62.3,30.12,North,360,0.0,0.0,80,0.00,,,0.17,WSDL version 420,2013-01-12 01:06:00,
2013-01-11 20:11:00,68.5,62.1,30.12,North,360,0.0,0.0,80,0.00,,,0.17,WSDL version 420,2013-01-12 01:11:00,
2013-01-11 20:16:00,68.5,62.3,30.12,North,360,0.0,0.0,81,0.00,,,0.17,WSDL version 420,2013-01-12 01:16:00,
2013-01-11 20:21:00,68.5,62.5,30.12,North,360,0.0,0.0,81,0.00,,,0.17,WSDL version 420,2013-01-12 01:21:00,
2013-01-11 20:26:00,68.5,62.5,30.12,North,360,0.0,0.0,81,0.00,,,0.17,WSDL version 420,2013-01-12 01:26:00,
2013-01-11 20:31:00,68.4,62.4,30.12,North,360,0.0,0.0,82,0.00,,,0.17,WSDL version 420,2013-01-12 01:31:00,
2013-01-11 20:36:00,68.4,62.7,30.12,North,360,0.0,0.0,82,0.00,,,0.17,WSDL version 420,2013-01-12 01:36:00,
2013-01-11 20:41:00,68.5,62.8,30.12,North,360,0.0,0.0,82,0.00,,,0.17,WSDL version 420,2013-01-12 01:41:00,
2013-01-11 20:46:00,68.5,62.9,30.12,North,360,0.0,0.0,82,0.00,,,0.17,WSDL version 420,2013-01-12 01:46:00,
2013-01-11 20:51:00,68.5,62.9,30.12,North,360,0.0,0.0,82,0.00,,,0.17,WSDL version 420,2013-01-12 01:51:00,
2013-01-11 20:56:00,68.7,63.4,30.12,North,360,0.0,0.0,83,0.00,,,0.17,WSDL version 420,2013-01-12 01:56:00,
2013-01-11 21:01:00,68.7,63.5,30.12,North,360,0.0,0.0,83,0.00,,,0.17,WSDL version 420,2013-01-12 02:01:00,
2013-01-11 21:06:00,68.9,63.6,30.12,North,360,0.0,0.0,83,0.00,,,0.17,WSDL version 420,2013-01-12 02:06:00,
2013-01-11 21:11:00,69.0,63.9,30.12,North,360,0.0,0.0,84,0.00,,,0.17,WSDL version 420,2013-01-12 02:11:00,
2013-01-11 21:16:00,69.3,64.4,30.12,North,360,0.0,0.0,84,0.00,,,0.17,WSDL version 420,2013-01-12 02:16:00,
2013-01-11 21:21:00,69.4,64.5,30.12,North,360,0.0,0.0,84,0.00,,,0.17,WSDL version 420,2013-01-12 02:21:00,
2013-01-11 21:26:00,69.7,64.6,30.12,ENE,77,0.0,1.1,83,0.00,,,0.17,WSDL version 420,2013-01-12 02:26:00,
2013-01-11 21:31:00,69.9,64.7,30.12,ENE,77,0.0,1.1,83,0.00,,,0.17,WSDL version 420,2013-01-12 02:31:00,
2013-01-11 21:36:00,70.1,64.6,30.12,East,83,0.0,0.9,82,0.00,,,0.17,WSDL version 420,2013-01-12 02:36:00,
2013-01-11 21:41:00,70.3,64.6,30.12,NNE,23,0.0,0.9,82,0.00,,,0.17,WSDL version 420,2013-01-12 02:41:00,
2013-01-11 21:46:00,70.5,64.5,30.12,East,79,0.0,0.0,81,0.00,,,0.17,WSDL version 420,2013-01-12 02:46:00,
2013-01-11 21:51:00,70.8,64.7,30.09,East,79,1.9,2.9,81,0.00,,,0.17,WSDL version 420,2013-01-12 02:51:00,
2013-01-11 21:56:00,71.0,64.7,30.09,East,99,1.2,2.9,80,0.00,,,0.17,WSDL version 420,2013-01-12 02:56:00,
2013-01-11 22:01:00,71.2,64.7,30.09,East,82,0.6,2.9,80,0.00,,,0.17,WSDL version 420,2013-01-12 03:01:00,
2013-01-11 22:06:00,71.4,64.6,30.12,East,86,2.2,3.6,79,0.00,,,0.17,WSDL version 420,2013-01-12 03:06:00,
2013-01-11 22:11:00,71.8,64.3,30.12,ENE,76,1.5,4.3,76,0.00,,,0.17,WSDL version 420,2013-01-12 03:11:00,
2013-01-11 22:16:00,72.1,63.7,30.12,East,96,2.9,6.0,74,0.00,,,0.17,WSDL version 420,2013-01-12 03:16:00,
2013-01-11 22:21:00,72.2,63.3,30.12,East,82,3.1,6.0,73,0.00,,,0.17,WSDL version 420,2013-01-12 03:21:00,
2013-01-11 22:26:00,72.4,63.3,30.12,NNE,32,2.1,5.4,73,0.00,,,0.17,WSDL version 420,2013-01-12 03:26:00,
2013-01-11 22:31:00,72.5,63.1,30.12,East,90,1.7,4.3,72,0.00,,,0.17,WSDL version 420,2013-01-12 03:31:00,
2013-01-11 22:36:00,72.6,63.0,30.12,East,94,1.8,4.9,71,0.00,,,0.17,WSDL version 420,2013-01-12 03:36:00,
2013-01-11 22:41:00,72.7,62.7,30.12,SE,131,3.5,4.9,71,0.00,,,0.17,WSDL version 420,2013-01-12 03:41:00,
2013-01-11 22:46:00,72.7,62.7,30.12,ENE,63,3.3,4.7,71,0.00,,,0.17,WSDL version 420,2013-01-12 03:46:00,
2013-01-11 22:51:00,72.9,62.9,30.12,NNE,23,2.7,4.9,71,0.00,,,0.17,WSDL version 420,2013-01-12 03:51:00,
2013-01-11 22:56:00,72.8,62.8,30.12,East,81,1.2,4.9,71,0.00,,,0.17,WSDL version 420,2013-01-12 03:56:00,
2013-01-11 23:01:00,72.7,62.4,30.12,East,84,2.5,5.6,70,0.00,,,0.17,WSDL version 420,2013-01-12 04:01:00,
2013-01-11 23:06:00,72.7,62.3,30.12,SE,124,2.8,5.6,70,0.00,,,0.17,WSDL version 420,2013-01-12 04:06:00,
2013-01-11 23:11:00,72.9,62.5,30.12,ENE,64,2.5,5.6,70,0.00,,,0.17,WSDL version 420,2013-01-12 04:11:00,
2013-01-11 23:16:00,72.9,62.5,30.12,East,96,1.7,3.8,70,0.00,,,0.17,WSDL version 420,2013-01-12 04:16:00,
2013-01-11 23:21:00,72.9,62.5,30.12,East,86,2.8,3.8,70,0.00,,,0.17,WSDL version 420,2013-01-12 04:21:00,
2013-01-11 23:26:00,72.9,62.5,30.12,ENE,71,3.0,4.0,70,0.00,,,0.17,WSDL version 420,2013-01-12 04:26:00,
2013-01-11 23:31:00,72.8,62.3,30.12,NE,56,2.1,4.0,70,0.00,,,0.17,WSDL version 420,2013-01-12 04:31:00,
2013-01-11 23:36:00,72.7,62.3,30.12,East,87,1.9,3.4,70,0.00,,,0.17,WSDL version 420,2013-01-12 04:36:00,
2013-01-11 23:41:00,72.7,62.3,30.12,ENE,70,1.5,3.4,70,0.00,,,0.17,WSDL version 420,2013-01-12 04:41:00,
2013-01-11 23:46:00,72.7,62.3,30.12,East,84,1.1,2.7,70,0.00,,,0.17,WSDL version 420,2013-01-12 04:46:00,
2013-01-11 23:51:00,72.5,62.2,30.12,East,83,1.1,2.5,70,0.00,,,0.17,WSDL version 420,2013-01-12 04:51:00,
2013-01-11 23:56:00,72.5,62.2,30.12,ENE,68,0.8,3.1,70,0.00,,,0.17,WSDL version 420,2013-01-12 04:56:00,